Sabaudia, Brazil
Current Conditions -  °F | °C
As of 11:40 PM on Monday 20 Oct 2014 (Local Time) from SBMG Reporting Station
Clear Clear  
Wind Chill: 68°   Ceiling: Unl
Heat Index: 68°   Visibility: 6mi
Dew Point: 66°   Wind: 3mph
Humidity: 94%   Direction: 140°SE
Pressure: 30.03"   Gusts: NA
Location:  23.32°S, 51.55°W
Report Text: SBMG 210240Z 14003KT CAVOK 20/19 Q1017
Loading
Personal Weather Stations






























Interactive Weather Map
Tropical Storm Tracking
New forecast layout! Learn more

10-Day Weather Forecast

Advertisements
Track Severe Weather on mobile